JBU1827 KEWR-KMCO
Flight info
| Callsign | JBU1827 |
|---|---|
| Flight time | N/A |
| Altitude | 34000 |
| Route | ELVAE NECCK WHITE Q409 CRPLR Q85 LPERD SNFLD3 |
| Aircraft | A321/M-SDE3FGHIRWY/LB1 |
Departure
| Time | 2026-05-04 23:24 |
|---|---|
| Airport | Newark Liberty International Airport (KEWR) |
Arrival
| Time | N/A |
|---|---|
| Airport | Orlando International Airport (KMCO) |
| Time | Latitude | Longitude | Altitude | Speed | Heading |
|---|---|---|---|---|---|
| 2026-05-04 22:53 | 40.68739 | -74.18702 | 22 ft | 0 kts | 266° |
| 2026-05-04 22:55 | 40.68739 | -74.18701 | 22 ft | 0 kts | 266° |
| 2026-05-04 23:11 | 40.68740 | -74.18696 | 22 ft | 3 kts | 266° |
| 2026-05-04 23:11 | 40.68740 | -74.18660 | 22 ft | 4 kts | 271° |
| 2026-05-04 23:11 | 40.68740 | -74.18624 | 22 ft | 4 kts | 263° |
| 2026-05-04 23:11 | 40.68746 | -74.18597 | 24 ft | 4 kts | 207° |
| 2026-05-04 23:12 | 40.68750 | -74.18594 | 27 ft | 2 kts | 177° |
| 2026-05-04 23:14 | 40.68747 | -74.18594 | 24 ft | 1 kts | 177° |
| 2026-05-04 23:14 | 40.68729 | -74.18593 | 25 ft | 4 kts | 177° |
| 2026-05-04 23:15 | 40.68698 | -74.18591 | 22 ft | 5 kts | 178° |
| 2026-05-04 23:15 | 40.68654 | -74.18588 | 22 ft | 7 kts | 178° |
| 2026-05-04 23:15 | 40.68592 | -74.18584 | 22 ft | 10 kts | 174° |
| 2026-05-04 23:15 | 40.68526 | -74.18528 | 22 ft | 13 kts | 121° |
| 2026-05-04 23:16 | 40.68509 | -74.18396 | 22 ft | 16 kts | 95° |
| 2026-05-04 23:16 | 40.68497 | -74.18232 | 22 ft | 19 kts | 96° |
| 2026-05-04 23:16 | 40.68433 | -74.18072 | 22 ft | 21 kts | 113° |
| 2026-05-04 23:16 | 40.68365 | -74.17898 | 22 ft | 22 kts | 116° |
| 2026-05-04 23:17 | 40.68299 | -74.17717 | 22 ft | 19 kts | 116° |
| 2026-05-04 23:17 | 40.68329 | -74.17601 | 22 ft | 17 kts | 24° |
| 2026-05-04 23:17 | 40.68443 | -74.17531 | 24 ft | 19 kts | 26° |
| 2026-05-04 23:17 | 40.68561 | -74.17454 | 23 ft | 19 kts | 25° |
| 2026-05-04 23:18 | 40.68680 | -74.17379 | 23 ft | 19 kts | 26° |
| 2026-05-04 23:18 | 40.68801 | -74.17303 | 24 ft | 20 kts | 25° |
| 2026-05-04 23:18 | 40.68924 | -74.17224 | 22 ft | 20 kts | 25° |
| 2026-05-04 23:18 | 40.69052 | -74.17147 | 21 ft | 20 kts | 24° |
| 2026-05-04 23:19 | 40.69181 | -74.17069 | 22 ft | 20 kts | 26° |
| 2026-05-04 23:19 | 40.69308 | -74.16984 | 22 ft | 20 kts | 27° |
| 2026-05-04 23:19 | 40.69433 | -74.16900 | 22 ft | 20 kts | 25° |
| 2026-05-04 23:19 | 40.69557 | -74.16821 | 22 ft | 16 kts | 26° |
| 2026-05-04 23:20 | 40.69659 | -74.16756 | 22 ft | 16 kts | 26° |
| 2026-05-04 23:20 | 40.69764 | -74.16690 | 21 ft | 17 kts | 25° |
| 2026-05-04 23:20 | 40.69874 | -74.16624 | 21 ft | 17 kts | 24° |
| 2026-05-04 23:20 | 40.69918 | -74.16598 | 21 ft | 4 kts | 25° |
| 2026-05-04 23:21 | 40.69949 | -74.16577 | 21 ft | 6 kts | 27° |
| 2026-05-04 23:21 | 40.69988 | -74.16550 | 22 ft | 8 kts | 28° |
| 2026-05-04 23:21 | 40.70046 | -74.16509 | 21 ft | 11 kts | 29° |
| 2026-05-04 23:21 | 40.70063 | -74.16477 | 21 ft | 0 kts | 77° |
| 2026-05-04 23:22 | 40.70063 | -74.16472 | 21 ft | 2 kts | 77° |
| 2026-05-04 23:22 | 40.70065 | -74.16433 | 20 ft | 8 kts | 89° |
| 2026-05-04 23:22 | 40.70030 | -74.16367 | 22 ft | 12 kts | 175° |
| 2026-05-04 23:23 | 40.69884 | -74.16453 | 20 ft | 50 kts | 205° |
| 2026-05-04 23:23 | 40.69373 | -74.16777 | 24 ft | 111 kts | 205° |
| 2026-05-04 23:23 | 40.68517 | -74.17323 | 29 ft | 159 kts | 207° |
| 2026-05-04 23:23 | 40.67493 | -74.17931 | 607 ft | 159 kts | 198° |
| 2026-05-04 23:24 | 40.66385 | -74.17972 | 1208 ft | 166 kts | 168° |
| 2026-05-04 23:24 | 40.65263 | -74.17802 | 1725 ft | 161 kts | 193° |
| 2026-05-04 23:24 | 40.64218 | -74.18274 | 2111 ft | 162 kts | 219° |
| 2026-05-04 23:24 | 40.63235 | -74.19219 | 2308 ft | 185 kts | 221° |
| 2026-05-04 23:25 | 40.62149 | -74.20299 | 2489 ft | 210 kts | 220° |
| 2026-05-04 23:25 | 40.60933 | -74.21517 | 2774 ft | 232 kts | 220° |
| 2026-05-04 23:25 | 40.59546 | -74.22856 | 3138 ft | 250 kts | 219° |
| 2026-05-04 23:25 | 40.58114 | -74.24197 | 3792 ft | 256 kts | 219° |
| 2026-05-04 23:26 | 40.56673 | -74.25539 | 4542 ft | 256 kts | 216° |
| 2026-05-04 23:26 | 40.55035 | -74.26559 | 5279 ft | 265 kts | 200° |
| 2026-05-04 23:26 | 40.53159 | -74.26805 | 5856 ft | 279 kts | 178° |
| 2026-05-04 23:26 | 40.51285 | -74.26113 | 6464 ft | 289 kts | 160° |
| 2026-05-04 23:27 | 40.49399 | -74.25068 | 7120 ft | 293 kts | 161° |
| 2026-05-04 23:27 | 40.47515 | -74.24096 | 7743 ft | 296 kts | 163° |
| 2026-05-04 23:27 | 40.45551 | -74.23136 | 8399 ft | 300 kts | 163° |
| 2026-05-04 23:27 | 40.43603 | -74.22175 | 9022 ft | 305 kts | 162° |
| 2026-05-04 23:28 | 40.41597 | -74.21181 | 9676 ft | 310 kts | 162° |
| 2026-05-04 23:28 | 40.39545 | -74.20163 | 10271 ft | 315 kts | 162° |
| 2026-05-04 23:28 | 40.37429 | -74.19117 | 10443 ft | 335 kts | 162° |
| 2026-05-04 23:28 | 40.35208 | -74.18022 | 10575 ft | 355 kts | 163° |
| 2026-05-04 23:29 | 40.32816 | -74.17147 | 10697 ft | 371 kts | 173° |
| 2026-05-04 23:29 | 40.30174 | -74.16823 | 10998 ft | 378 kts | 184° |
| 2026-05-04 23:29 | 40.27556 | -74.17113 | 11548 ft | 377 kts | 194° |
| 2026-05-04 23:29 | 40.24998 | -74.17852 | 12157 ft | 378 kts | 197° |
| 2026-05-04 23:30 | 40.22428 | -74.18625 | 12787 ft | 380 kts | 197° |
| 2026-05-04 23:30 | 40.19851 | -74.19396 | 13408 ft | 382 kts | 197° |
| 2026-05-04 23:30 | 40.17241 | -74.20176 | 14007 ft | 384 kts | 197° |
| 2026-05-04 23:30 | 40.14627 | -74.20957 | 14546 ft | 387 kts | 197° |
| 2026-05-04 23:31 | 40.11996 | -74.21745 | 15085 ft | 390 kts | 198° |
| 2026-05-04 23:31 | 40.09339 | -74.22541 | 15627 ft | 392 kts | 198° |
| 2026-05-04 23:31 | 40.06665 | -74.23345 | 16166 ft | 395 kts | 198° |
| 2026-05-04 23:31 | 40.03982 | -74.24150 | 16714 ft | 398 kts | 198° |
| 2026-05-04 23:32 | 40.01339 | -74.25203 | 17012 ft | 395 kts | 207° |
| 2026-05-04 23:32 | 39.98915 | -74.26830 | 17179 ft | 390 kts | 218° |
| 2026-05-04 23:32 | 39.96727 | -74.28913 | 17744 ft | 390 kts | 221° |
| 2026-05-04 23:32 | 39.94542 | -74.31025 | 18282 ft | 393 kts | 221° |
| 2026-05-04 23:33 | 39.92332 | -74.33133 | 18740 ft | 395 kts | 221° |
| 2026-05-04 23:33 | 39.90100 | -74.35246 | 19185 ft | 398 kts | 220° |
| 2026-05-04 23:33 | 39.87854 | -74.37371 | 19622 ft | 400 kts | 221° |
| 2026-05-04 23:33 | 39.85595 | -74.39509 | 20069 ft | 402 kts | 220° |
| 2026-05-04 23:34 | 39.83320 | -74.41660 | 20494 ft | 405 kts | 220° |
| 2026-05-04 23:34 | 39.81136 | -74.43952 | 20907 ft | 403 kts | 228° |
| 2026-05-04 23:34 | 39.79166 | -74.46555 | 21327 ft | 404 kts | 230° |
| 2026-05-04 23:34 | 39.77199 | -74.49179 | 21733 ft | 406 kts | 230° |
| 2026-05-04 23:35 | 39.75221 | -74.51815 | 22123 ft | 409 kts | 230° |
| 2026-05-04 23:35 | 39.73228 | -74.54462 | 22502 ft | 411 kts | 230° |
| 2026-05-04 23:35 | 39.71215 | -74.57127 | 22921 ft | 414 kts | 230° |
| 2026-05-04 23:35 | 39.69193 | -74.59795 | 23313 ft | 416 kts | 230° |
| 2026-05-04 23:36 | 39.67155 | -74.62486 | 23653 ft | 419 kts | 230° |
| 2026-05-04 23:36 | 39.65108 | -74.65189 | 23976 ft | 421 kts | 230° |
| 2026-05-04 23:36 | 39.63051 | -74.67905 | 24306 ft | 423 kts | 230° |
| 2026-05-04 23:36 | 39.60986 | -74.70630 | 24627 ft | 425 kts | 230° |
| 2026-05-04 23:37 | 39.58903 | -74.73374 | 24950 ft | 427 kts | 230° |
| 2026-05-04 23:37 | 39.56815 | -74.76122 | 25259 ft | 429 kts | 230° |
| 2026-05-04 23:37 | 39.54719 | -74.78879 | 25577 ft | 431 kts | 230° |
| 2026-05-04 23:37 | 39.52608 | -74.81650 | 25879 ft | 433 kts | 230° |
| 2026-05-04 23:38 | 39.51176 | -74.83529 | 26073 ft | 434 kts | 229° |
| 2026-05-04 23:38 | 39.49055 | -74.86313 | 26352 ft | 436 kts | 230° |
| 2026-05-04 23:38 | 39.46920 | -74.89117 | 26648 ft | 438 kts | 229° |
| 2026-05-04 23:38 | 39.44778 | -74.91928 | 26948 ft | 440 kts | 229° |
| 2026-05-04 23:39 | 39.42624 | -74.94751 | 27239 ft | 442 kts | 229° |
| 2026-05-04 23:39 | 39.40466 | -74.97574 | 27546 ft | 444 kts | 229° |
| 2026-05-04 23:39 | 39.38278 | -75.00423 | 27843 ft | 445 kts | 229° |
| 2026-05-04 23:39 | 39.36098 | -75.03256 | 28279 ft | 444 kts | 229° |
| 2026-05-04 23:40 | 39.33946 | -75.06050 | 28674 ft | 443 kts | 229° |
| 2026-05-04 23:40 | 39.31772 | -75.08872 | 29073 ft | 442 kts | 229° |
| 2026-05-04 23:40 | 39.29606 | -75.11675 | 29464 ft | 442 kts | 229° |
| 2026-05-04 23:40 | 39.27357 | -75.14454 | 29871 ft | 442 kts | 227° |
| 2026-05-04 23:41 | 39.25119 | -75.17093 | 30209 ft | 441 kts | 226° |
| 2026-05-04 23:41 | 39.22825 | -75.19726 | 30539 ft | 441 kts | 225° |
| 2026-05-04 23:41 | 39.20527 | -75.22336 | 30837 ft | 440 kts | 225° |
| 2026-05-04 23:41 | 39.18203 | -75.24984 | 31143 ft | 439 kts | 226° |
| 2026-05-04 23:42 | 39.15958 | -75.27568 | 31444 ft | 438 kts | 226° |
| 2026-05-04 23:42 | 39.13695 | -75.30198 | 31743 ft | 438 kts | 226° |
| 2026-05-04 23:42 | 39.11443 | -75.32830 | 32044 ft | 437 kts | 226° |
| 2026-05-04 23:42 | 39.09193 | -75.35461 | 32354 ft | 436 kts | 226° |
| 2026-05-04 23:43 | 39.06946 | -75.38082 | 32652 ft | 435 kts | 226° |
| 2026-05-04 23:43 | 39.04567 | -75.40596 | 32934 ft | 439 kts | 219° |
| 2026-05-04 23:43 | 39.01964 | -75.42578 | 33207 ft | 444 kts | 210° |
| 2026-05-04 23:43 | 38.99081 | -75.44041 | 33483 ft | 449 kts | 201° |
| 2026-05-04 23:44 | 38.95972 | -75.44914 | 33752 ft | 455 kts | 192° |
| 2026-05-04 23:44 | 38.92861 | -75.45341 | 33901 ft | 456 kts | 191° |
| 2026-05-04 23:44 | 38.86491 | -75.46213 | 33952 ft | 462 kts | 191° |
| 2026-05-04 23:45 | 38.80090 | -75.47112 | 33948 ft | 468 kts | 191° |
| 2026-05-04 23:45 | 38.73613 | -75.48007 | 33951 ft | 468 kts | 191° |
| 2026-05-04 23:46 | 38.67146 | -75.48888 | 33953 ft | 467 kts | 191° |
| 2026-05-04 23:46 | 38.60687 | -75.49754 | 33953 ft | 467 kts | 191° |
| 2026-05-04 23:47 | 38.54222 | -75.50629 | 33959 ft | 467 kts | 191° |
| 2026-05-04 23:47 | 38.47750 | -75.51515 | 33974 ft | 468 kts | 191° |
| 2026-05-04 23:48 | 38.41276 | -75.52391 | 33978 ft | 468 kts | 191° |
| 2026-05-04 23:48 | 38.34917 | -75.53800 | 33978 ft | 459 kts | 203° |
| 2026-05-04 23:49 | 38.29313 | -75.57370 | 33979 ft | 447 kts | 219° |
| 2026-05-04 23:49 | 38.24199 | -75.61870 | 33985 ft | 447 kts | 219° |
| 2026-05-04 23:50 | 38.19063 | -75.66325 | 33985 ft | 447 kts | 218° |
| 2026-05-04 23:50 | 38.13914 | -75.70783 | 33989 ft | 447 kts | 219° |
| 2026-05-04 23:51 | 38.08780 | -75.75244 | 33999 ft | 447 kts | 219° |
| 2026-05-04 23:51 | 38.03637 | -75.79704 | 33992 ft | 447 kts | 219° |
| 2026-05-04 23:52 | 37.98489 | -75.84148 | 33990 ft | 448 kts | 218° |
| 2026-05-04 23:52 | 37.93331 | -75.88598 | 33992 ft | 448 kts | 218° |
| 2026-05-04 23:53 | 37.88180 | -75.93035 | 33988 ft | 448 kts | 218° |
| 2026-05-04 23:53 | 37.83022 | -75.97467 | 34007 ft | 448 kts | 218° |
| 2026-05-04 23:54 | 37.77850 | -76.01898 | 33967 ft | 449 kts | 218° |
| 2026-05-04 23:54 | 37.72705 | -76.06308 | 33959 ft | 450 kts | 218° |
| 2026-05-04 23:55 | 37.67523 | -76.10743 | 33974 ft | 451 kts | 218° |
| 2026-05-04 23:56 | 37.59713 | -76.17391 | 33990 ft | 451 kts | 217° |
| 2026-05-04 23:56 | 37.54369 | -76.21558 | 33996 ft | 452 kts | 214° |
| 2026-05-04 23:57 | 37.48937 | -76.25557 | 33996 ft | 452 kts | 214° |
| 2026-05-04 23:57 | 37.43527 | -76.29579 | 34005 ft | 451 kts | 215° |
| 2026-05-04 23:58 | 37.38165 | -76.33642 | 34007 ft | 449 kts | 215° |
| 2026-05-04 23:58 | 37.32824 | -76.37704 | 34009 ft | 448 kts | 215° |
| 2026-05-04 23:59 | 37.27475 | -76.41739 | 34009 ft | 447 kts | 215° |
| 2026-05-04 23:59 | 37.22139 | -76.45741 | 34010 ft | 446 kts | 215° |
| 2026-05-05 00:00 | 37.16813 | -76.49742 | 34014 ft | 445 kts | 216° |
| 2026-05-05 00:00 | 37.11505 | -76.53733 | 34014 ft | 444 kts | 216° |
| 2026-05-05 00:01 | 37.06209 | -76.57707 | 33986 ft | 443 kts | 216° |
| 2026-05-05 00:01 | 37.00913 | -76.61665 | 33990 ft | 442 kts | 216° |
| 2026-05-05 00:02 | 36.95635 | -76.65598 | 34007 ft | 442 kts | 216° |
| 2026-05-05 00:02 | 36.90362 | -76.69528 | 34034 ft | 440 kts | 216° |
| 2026-05-05 00:03 | 36.85101 | -76.73442 | 34033 ft | 439 kts | 216° |
| 2026-05-05 00:03 | 36.79852 | -76.77342 | 34028 ft | 438 kts | 216° |
| 2026-05-05 00:04 | 36.74612 | -76.81225 | 34033 ft | 438 kts | 216° |
| 2026-05-05 00:04 | 36.69373 | -76.85099 | 34027 ft | 437 kts | 216° |
| 2026-05-05 00:05 | 36.64142 | -76.88960 | 34034 ft | 437 kts | 216° |
| 2026-05-05 00:05 | 36.58917 | -76.92817 | 34026 ft | 436 kts | 216° |
| 2026-05-05 00:06 | 36.53699 | -76.96670 | 34023 ft | 436 kts | 216° |
| 2026-05-05 00:06 | 36.48486 | -77.00508 | 34027 ft | 435 kts | 216° |
| 2026-05-05 00:07 | 36.43268 | -77.04344 | 34036 ft | 435 kts | 216° |
| 2026-05-05 00:07 | 36.38065 | -77.08158 | 34036 ft | 435 kts | 216° |
| 2026-05-05 00:08 | 36.32890 | -77.11950 | 34036 ft | 434 kts | 216° |
| 2026-05-05 00:08 | 36.27691 | -77.15752 | 34031 ft | 434 kts | 216° |
| 2026-05-05 00:09 | 36.22482 | -77.19547 | 34034 ft | 434 kts | 216° |
| 2026-05-05 00:09 | 36.17281 | -77.23345 | 34027 ft | 434 kts | 216° |
| 2026-05-05 00:10 | 36.12084 | -77.27130 | 34035 ft | 434 kts | 215° |
| 2026-05-05 00:10 | 36.06877 | -77.30910 | 34049 ft | 434 kts | 215° |
| 2026-05-05 00:11 | 36.01955 | -77.35132 | 34036 ft | 429 kts | 223° |
| 2026-05-05 00:11 | 35.97264 | -77.39682 | 34029 ft | 429 kts | 222° |
| 2026-05-05 00:12 | 35.92561 | -77.44230 | 34046 ft | 429 kts | 222° |
| 2026-05-05 00:12 | 35.87858 | -77.48770 | 34041 ft | 429 kts | 222° |
| 2026-05-05 00:13 | 35.83140 | -77.53310 | 34041 ft | 430 kts | 222° |
| 2026-05-05 00:13 | 35.78431 | -77.57833 | 34044 ft | 430 kts | 222° |
| 2026-05-05 00:14 | 35.73709 | -77.62364 | 34042 ft | 430 kts | 222° |
| 2026-05-05 00:14 | 35.68989 | -77.66899 | 34056 ft | 430 kts | 222° |
| 2026-05-05 00:15 | 35.64269 | -77.71428 | 34051 ft | 430 kts | 222° |
| 2026-05-05 00:15 | 35.59540 | -77.75946 | 34060 ft | 431 kts | 222° |
| 2026-05-05 00:16 | 35.54805 | -77.80460 | 34056 ft | 431 kts | 222° |
| 2026-05-05 00:16 | 35.50072 | -77.84973 | 34057 ft | 431 kts | 222° |
| 2026-05-05 00:17 | 35.46094 | -77.88759 | 34055 ft | 431 kts | 222° |
| 2026-05-05 00:17 | 35.41349 | -77.93269 | 34055 ft | 432 kts | 222° |
| 2026-05-05 00:18 | 35.36601 | -77.97782 | 34056 ft | 432 kts | 222° |
| 2026-05-05 00:18 | 35.31839 | -78.02293 | 34056 ft | 433 kts | 222° |
| 2026-05-05 00:19 | 35.27073 | -78.06803 | 34059 ft | 433 kts | 222° |
| 2026-05-05 00:19 | 35.22306 | -78.11311 | 34059 ft | 433 kts | 222° |
| 2026-05-05 00:20 | 35.17527 | -78.15820 | 34060 ft | 434 kts | 222° |
| 2026-05-05 00:20 | 35.12750 | -78.20321 | 34081 ft | 434 kts | 222° |
| 2026-05-05 00:21 | 35.07964 | -78.24822 | 34091 ft | 434 kts | 222° |
| 2026-05-05 00:21 | 35.03174 | -78.29313 | 34096 ft | 434 kts | 222° |
| 2026-05-05 00:22 | 34.98374 | -78.33807 | 34094 ft | 434 kts | 222° |
| 2026-05-05 00:22 | 34.93586 | -78.38295 | 34093 ft | 435 kts | 222° |
| 2026-05-05 00:23 | 34.88782 | -78.42788 | 34094 ft | 435 kts | 222° |
| 2026-05-05 00:23 | 34.83981 | -78.47275 | 34087 ft | 435 kts | 222° |
| 2026-05-05 00:24 | 34.79171 | -78.51764 | 34094 ft | 436 kts | 222° |
| 2026-05-05 00:24 | 34.74359 | -78.56242 | 34109 ft | 436 kts | 222° |
| 2026-05-05 00:25 | 34.69540 | -78.60722 | 34118 ft | 436 kts | 222° |
| 2026-05-05 00:25 | 34.64717 | -78.65191 | 34119 ft | 436 kts | 222° |
| 2026-05-05 00:26 | 34.59888 | -78.69669 | 34123 ft | 436 kts | 222° |
| 2026-05-05 00:26 | 34.55060 | -78.74132 | 34112 ft | 437 kts | 222° |
| 2026-05-05 00:27 | 34.50226 | -78.78599 | 34107 ft | 437 kts | 222° |
| 2026-05-05 00:27 | 34.45394 | -78.83048 | 34114 ft | 435 kts | 222° |
| 2026-05-05 00:28 | 34.40514 | -78.87394 | 34117 ft | 435 kts | 220° |
| 2026-05-05 00:28 | 34.35535 | -78.91540 | 34120 ft | 434 kts | 219° |
| 2026-05-05 00:29 | 34.30550 | -78.95653 | 34114 ft | 433 kts | 219° |
| 2026-05-05 00:29 | 34.25600 | -78.99799 | 34112 ft | 433 kts | 220° |
| 2026-05-05 00:30 | 34.20670 | -79.03964 | 34096 ft | 432 kts | 220° |
| 2026-05-05 00:30 | 34.15738 | -79.08123 | 34096 ft | 432 kts | 219° |
| 2026-05-05 00:31 | 34.10794 | -79.12252 | 34093 ft | 432 kts | 219° |
| 2026-05-05 00:31 | 34.05852 | -79.16369 | 34094 ft | 432 kts | 219° |
| 2026-05-05 00:32 | 34.00920 | -79.20496 | 34113 ft | 431 kts | 219° |
| 2026-05-05 00:32 | 33.95996 | -79.24630 | 34113 ft | 431 kts | 219° |
| 2026-05-05 00:33 | 33.91071 | -79.28742 | 34115 ft | 431 kts | 219° |
| 2026-05-05 00:33 | 33.86132 | -79.32839 | 34116 ft | 431 kts | 219° |
| 2026-05-05 00:34 | 33.81236 | -79.36904 | 34114 ft | 430 kts | 219° |
| 2026-05-05 00:34 | 33.76316 | -79.40994 | 34114 ft | 430 kts | 219° |
| 2026-05-05 00:35 | 33.71353 | -79.45111 | 34119 ft | 430 kts | 219° |
| 2026-05-05 00:35 | 33.66427 | -79.49192 | 34110 ft | 431 kts | 219° |
| 2026-05-05 00:36 | 33.61524 | -79.53247 | 34113 ft | 431 kts | 219° |
| 2026-05-05 00:36 | 33.56587 | -79.57320 | 34108 ft | 430 kts | 219° |
| 2026-05-05 00:37 | 33.51651 | -79.61387 | 34111 ft | 430 kts | 219° |
| 2026-05-05 00:37 | 33.46718 | -79.65449 | 34109 ft | 430 kts | 219° |
| 2026-05-05 00:38 | 33.41783 | -79.69503 | 34105 ft | 430 kts | 219° |
| 2026-05-05 00:38 | 33.36851 | -79.73554 | 34101 ft | 430 kts | 219° |
| 2026-05-05 00:39 | 33.31921 | -79.77601 | 34105 ft | 430 kts | 218° |
| 2026-05-05 00:39 | 33.26980 | -79.81646 | 34114 ft | 430 kts | 218° |
| 2026-05-05 00:40 | 33.22040 | -79.85680 | 34116 ft | 431 kts | 218° |
| 2026-05-05 00:40 | 33.17092 | -79.89718 | 34121 ft | 430 kts | 218° |
| 2026-05-05 00:41 | 33.12146 | -79.93747 | 34120 ft | 430 kts | 218° |
| 2026-05-05 00:41 | 33.07200 | -79.97777 | 34123 ft | 430 kts | 218° |
| 2026-05-05 00:42 | 33.02250 | -80.01802 | 34121 ft | 430 kts | 218° |
| 2026-05-05 00:42 | 32.97305 | -80.05812 | 34124 ft | 430 kts | 218° |
| 2026-05-05 00:43 | 32.92348 | -80.09820 | 34120 ft | 430 kts | 218° |
| 2026-05-05 00:43 | 32.87400 | -80.13838 | 34114 ft | 431 kts | 218° |
| 2026-05-05 00:44 | 32.82443 | -80.17851 | 34110 ft | 431 kts | 218° |
| 2026-05-05 00:44 | 32.77477 | -80.21853 | 34109 ft | 432 kts | 218° |
| 2026-05-05 00:45 | 32.72507 | -80.25858 | 34113 ft | 432 kts | 218° |
| 2026-05-05 00:45 | 32.67532 | -80.29875 | 34110 ft | 432 kts | 218° |
| 2026-05-05 00:46 | 32.62549 | -80.33880 | 34108 ft | 433 kts | 218° |
| 2026-05-05 00:46 | 32.57553 | -80.37862 | 34103 ft | 433 kts | 217° |
| 2026-05-05 00:47 | 32.52373 | -80.41562 | 34097 ft | 435 kts | 213° |
| 2026-05-05 00:47 | 32.47054 | -80.45016 | 34099 ft | 436 kts | 213° |
| 2026-05-05 00:48 | 32.41738 | -80.48502 | 34106 ft | 436 kts | 213° |
| 2026-05-05 00:48 | 32.36459 | -80.52053 | 34111 ft | 436 kts | 214° |
| 2026-05-05 00:49 | 32.31196 | -80.55615 | 34104 ft | 436 kts | 214° |
| 2026-05-05 00:49 | 32.25919 | -80.59166 | 34118 ft | 436 kts | 214° |
| 2026-05-05 00:50 | 32.20636 | -80.62707 | 34112 ft | 437 kts | 214° |
| 2026-05-05 00:50 | 32.15352 | -80.66254 | 34101 ft | 436 kts | 214° |
| 2026-05-05 00:51 | 32.10072 | -80.69779 | 34097 ft | 436 kts | 214° |
| 2026-05-05 00:51 | 32.04792 | -80.73294 | 34094 ft | 436 kts | 214° |
| 2026-05-05 00:52 | 31.99518 | -80.76822 | 34086 ft | 435 kts | 215° |
| 2026-05-05 00:52 | 31.94251 | -80.80346 | 34085 ft | 435 kts | 215° |
| 2026-05-05 00:53 | 31.88980 | -80.83849 | 34082 ft | 435 kts | 215° |
| 2026-05-05 00:53 | 31.83709 | -80.87349 | 34081 ft | 435 kts | 215° |
| 2026-05-05 00:54 | 31.79291 | -80.90278 | 34083 ft | 435 kts | 215° |
| 2026-05-05 00:54 | 31.74024 | -80.93773 | 34088 ft | 435 kts | 216° |
| 2026-05-05 00:55 | 31.68761 | -80.97275 | 34089 ft | 435 kts | 216° |
| 2026-05-05 00:55 | 31.63491 | -81.00761 | 34091 ft | 435 kts | 216° |
| 2026-05-05 00:56 | 31.58251 | -81.04208 | 34087 ft | 435 kts | 216° |
| 2026-05-05 00:56 | 31.52862 | -81.07579 | 34093 ft | 437 kts | 214° |
| 2026-05-05 00:57 | 31.47453 | -81.10836 | 34090 ft | 437 kts | 214° |
| 2026-05-05 00:57 | 31.42053 | -81.14099 | 34100 ft | 437 kts | 214° |
| 2026-05-05 00:58 | 31.36698 | -81.17366 | 34107 ft | 437 kts | 215° |
| 2026-05-05 00:58 | 31.31249 | -81.20629 | 34105 ft | 437 kts | 214° |
| 2026-05-05 00:59 | 31.25814 | -81.23831 | 34107 ft | 437 kts | 214° |
| 2026-05-05 00:59 | 31.20315 | -81.26931 | 34108 ft | 444 kts | 208° |
| 2026-05-05 00:59 | 31.17310 | -81.27909 | 34106 ft | 455 kts | 198° |
| 2026-05-05 01:00 | 31.14122 | -81.28268 | 34105 ft | 467 kts | 188° |
| 2026-05-05 01:00 | 31.07605 | -81.28236 | 34104 ft | 468 kts | 188° |
| 2026-05-05 01:01 | 31.01085 | -81.28215 | 34092 ft | 469 kts | 188° |
| 2026-05-05 01:01 | 30.94563 | -81.28199 | 34094 ft | 469 kts | 188° |
| 2026-05-05 01:02 | 30.88031 | -81.28181 | 34106 ft | 469 kts | 188° |
| 2026-05-05 01:02 | 30.81506 | -81.28162 | 34110 ft | 469 kts | 188° |
| 2026-05-05 01:03 | 30.74965 | -81.28151 | 34117 ft | 470 kts | 188° |
| 2026-05-05 01:03 | 30.68427 | -81.28132 | 34123 ft | 470 kts | 188° |
| 2026-05-05 01:04 | 30.62741 | -81.28117 | 34111 ft | 470 kts | 189° |
| 2026-05-05 01:04 | 30.52885 | -81.27745 | 34102 ft | 475 kts | 185° |
| 2026-05-05 01:05 | 30.46283 | -81.27129 | 34089 ft | 476 kts | 184° |
| 2026-05-05 01:05 | 30.39677 | -81.26539 | 34081 ft | 476 kts | 185° |
| 2026-05-05 01:06 | 30.33107 | -81.26039 | 34081 ft | 476 kts | 185° |
| 2026-05-05 01:06 | 30.26449 | -81.25569 | 34076 ft | 477 kts | 185° |
| 2026-05-05 01:07 | 30.19823 | -81.25091 | 34075 ft | 478 kts | 185° |
| 2026-05-05 01:07 | 30.13224 | -81.24589 | 34083 ft | 478 kts | 185° |
| 2026-05-05 01:08 | 30.06539 | -81.24082 | 34022 ft | 480 kts | 185° |
| 2026-05-05 01:08 | 30.03206 | -81.23834 | 33556 ft | 478 kts | 185° |
| 2026-05-05 01:08 | 29.99890 | -81.23586 | 33294 ft | 479 kts | 184° |
| 2026-05-05 01:09 | 29.96564 | -81.23334 | 33033 ft | 479 kts | 184° |
| 2026-05-05 01:09 | 29.93233 | -81.23084 | 32773 ft | 479 kts | 184° |
| 2026-05-05 01:09 | 29.89907 | -81.22837 | 32509 ft | 479 kts | 184° |
| 2026-05-05 01:09 | 29.86580 | -81.22592 | 32251 ft | 479 kts | 184° |
| 2026-05-05 01:10 | 29.83256 | -81.22349 | 31993 ft | 479 kts | 184° |
| 2026-05-05 01:10 | 29.79930 | -81.22105 | 31738 ft | 479 kts | 184° |
| 2026-05-05 01:10 | 29.76602 | -81.21859 | 31078 ft | 483 kts | 184° |
| 2026-05-05 01:10 | 29.73225 | -81.21608 | 30225 ft | 485 kts | 184° |
| 2026-05-05 01:11 | 29.69874 | -81.21354 | 29374 ft | 483 kts | 184° |
| 2026-05-05 01:11 | 29.66511 | -81.21088 | 28394 ft | 485 kts | 183° |
| 2026-05-05 01:11 | 29.63145 | -81.20803 | 27568 ft | 484 kts | 182° |
| 2026-05-05 01:11 | 29.59800 | -81.20504 | 26976 ft | 478 kts | 182° |
| 2026-05-05 01:12 | 29.56500 | -81.20206 | 26351 ft | 475 kts | 181° |
| 2026-05-05 01:12 | 29.53221 | -81.19912 | 25730 ft | 471 kts | 181° |
| 2026-05-05 01:12 | 29.49969 | -81.19628 | 25112 ft | 466 kts | 181° |
| 2026-05-05 01:12 | 29.46753 | -81.19350 | 24511 ft | 462 kts | 181° |
| 2026-05-05 01:13 | 29.43553 | -81.19074 | 23910 ft | 459 kts | 181° |
| 2026-05-05 01:13 | 29.40386 | -81.18805 | 23242 ft | 456 kts | 181° |
| 2026-05-05 01:13 | 29.37239 | -81.18537 | 22664 ft | 450 kts | 180° |
| 2026-05-05 01:13 | 29.34138 | -81.18273 | 22086 ft | 444 kts | 180° |
| 2026-05-05 01:14 | 29.31071 | -81.18014 | 21518 ft | 438 kts | 180° |
| 2026-05-05 01:14 | 29.28048 | -81.17760 | 20976 ft | 433 kts | 180° |
| 2026-05-05 01:14 | 29.25070 | -81.17507 | 20439 ft | 428 kts | 180° |
| 2026-05-05 01:14 | 29.22121 | -81.17249 | 19930 ft | 423 kts | 180° |
| 2026-05-05 01:15 | 29.19201 | -81.16859 | 19418 ft | 422 kts | 172° |
| 2026-05-05 01:15 | 29.16386 | -81.15913 | 18918 ft | 424 kts | 163° |
| 2026-05-05 01:15 | 29.13646 | -81.14701 | 18362 ft | 422 kts | 162° |
| 2026-05-05 01:15 | 29.10899 | -81.13498 | 17758 ft | 420 kts | 162° |
| 2026-05-05 01:16 | 29.08182 | -81.12315 | 17255 ft | 416 kts | 162° |
| 2026-05-05 01:16 | 29.05481 | -81.11160 | 16733 ft | 412 kts | 163° |
| 2026-05-05 01:16 | 29.02792 | -81.10090 | 16280 ft | 406 kts | 164° |
| 2026-05-05 01:16 | 29.00152 | -81.09098 | 16143 ft | 391 kts | 165° |
| 2026-05-05 01:17 | 28.97628 | -81.08228 | 15738 ft | 367 kts | 171° |
| 2026-05-05 01:17 | 28.95158 | -81.07870 | 15242 ft | 359 kts | 178° |
| 2026-05-05 01:17 | 28.92688 | -81.07634 | 15003 ft | 355 kts | 177° |
| 2026-05-05 01:17 | 28.90235 | -81.07375 | 14725 ft | 353 kts | 179° |
| 2026-05-05 01:18 | 28.87807 | -81.07499 | 14312 ft | 347 kts | 191° |
| 2026-05-05 01:18 | 28.85492 | -81.08181 | 13899 ft | 342 kts | 201° |
| 2026-05-05 01:18 | 28.83256 | -81.09119 | 13451 ft | 341 kts | 201° |
| 2026-05-05 01:18 | 28.81040 | -81.10047 | 13043 ft | 339 kts | 201° |
| 2026-05-05 01:19 | 28.78833 | -81.10967 | 12634 ft | 337 kts | 201° |
| 2026-05-05 01:19 | 28.76617 | -81.11887 | 12317 ft | 330 kts | 201° |
| 2026-05-05 01:19 | 28.74523 | -81.12752 | 12190 ft | 318 kts | 201° |
| 2026-05-05 01:19 | 28.72476 | -81.13601 | 12063 ft | 307 kts | 201° |
| 2026-05-05 01:20 | 28.70484 | -81.14409 | 11810 ft | 301 kts | 198° |
| 2026-05-05 01:20 | 28.68456 | -81.14961 | 11497 ft | 300 kts | 194° |
| 2026-05-05 01:20 | 28.66420 | -81.15490 | 11044 ft | 302 kts | 194° |
| 2026-05-05 01:20 | 28.64383 | -81.16018 | 10689 ft | 300 kts | 195° |
| 2026-05-05 01:21 | 28.62338 | -81.16552 | 10338 ft | 298 kts | 195° |
| 2026-05-05 01:21 | 28.60326 | -81.17077 | 10014 ft | 296 kts | 195° |
| 2026-05-05 01:21 | 28.58346 | -81.17592 | 9702 ft | 283 kts | 195° |
| 2026-05-05 01:21 | 28.56470 | -81.18076 | 9264 ft | 271 kts | 194° |
| 2026-05-05 01:22 | 28.54650 | -81.18529 | 8754 ft | 264 kts | 189° |
| 2026-05-05 01:22 | 28.52829 | -81.18626 | 8625 ft | 263 kts | 182° |
| 2026-05-05 01:22 | 28.50994 | -81.18639 | 8398 ft | 264 kts | 182° |
| 2026-05-05 01:22 | 28.49158 | -81.18657 | 8058 ft | 263 kts | 182° |
| 2026-05-05 01:23 | 28.47328 | -81.18678 | 7700 ft | 264 kts | 182° |
| 2026-05-05 01:23 | 28.45501 | -81.18698 | 7418 ft | 262 kts | 182° |
| 2026-05-05 01:23 | 28.43682 | -81.18717 | 7139 ft | 259 kts | 182° |
| 2026-05-05 01:23 | 28.41918 | -81.18733 | 6974 ft | 248 kts | 182° |
| 2026-05-05 01:24 | 28.40215 | -81.18744 | 6690 ft | 242 kts | 182° |
| 2026-05-05 01:24 | 28.38542 | -81.18753 | 6400 ft | 239 kts | 182° |
| 2026-05-05 01:24 | 28.36881 | -81.18759 | 6100 ft | 238 kts | 182° |
| 2026-05-05 01:24 | 28.35222 | -81.18757 | 5799 ft | 238 kts | 182° |
| 2026-05-05 01:25 | 28.33584 | -81.18759 | 5466 ft | 234 kts | 182° |
| 2026-05-05 01:25 | 28.31960 | -81.18766 | 5118 ft | 232 kts | 182° |
| 2026-05-05 01:25 | 28.30355 | -81.18780 | 4773 ft | 230 kts | 181° |
| 2026-05-05 01:25 | 28.28768 | -81.18812 | 4429 ft | 227 kts | 181° |
| 2026-05-05 01:26 | 28.27202 | -81.18871 | 4100 ft | 225 kts | 181° |
| 2026-05-05 01:26 | 28.25641 | -81.18959 | 3781 ft | 222 kts | 181° |
| 2026-05-05 01:26 | 28.24106 | -81.19069 | 3460 ft | 220 kts | 181° |
| 2026-05-05 01:26 | 28.22581 | -81.19196 | 3140 ft | 219 kts | 182° |
| 2026-05-05 01:27 | 28.21120 | -81.19665 | 2802 ft | 223 kts | 210° |
| 2026-05-05 01:27 | 28.20100 | -81.20987 | 2484 ft | 229 kts | 245° |
| 2026-05-05 01:27 | 28.19718 | -81.22745 | 2172 ft | 232 kts | 261° |
| 2026-05-05 01:27 | 28.19510 | -81.24534 | 2011 ft | 232 kts | 263° |
| 2026-05-05 01:28 | 28.19316 | -81.26373 | 2012 ft | 234 kts | 263° |
| 2026-05-05 01:28 | 28.19301 | -81.28194 | 1998 ft | 234 kts | 285° |
| 2026-05-05 01:28 | 28.20081 | -81.29794 | 2016 ft | 230 kts | 316° |
| 2026-05-05 01:28 | 28.21282 | -81.30964 | 2019 ft | 227 kts | 329° |
| 2026-05-05 01:29 | 28.22641 | -81.31872 | 2011 ft | 223 kts | 344° |
| 2026-05-05 01:29 | 28.24116 | -81.32191 | 2015 ft | 209 kts | 356° |
| 2026-05-05 01:29 | 28.25536 | -81.32403 | 2011 ft | 202 kts | 360° |
| 2026-05-05 01:29 | 28.26927 | -81.32488 | 2017 ft | 199 kts | 3° |
| 2026-05-05 01:30 | 28.28294 | -81.32518 | 2011 ft | 193 kts | 4° |
| 2026-05-05 01:30 | 28.29625 | -81.32534 | 2050 ft | 190 kts | 4° |
| 2026-05-05 01:30 | 28.30520 | -81.32544 | 2028 ft | 190 kts | 4° |
| 2026-05-05 01:30 | 28.31830 | -81.32558 | 1982 ft | 189 kts | 5° |
| 2026-05-05 01:31 | 28.33119 | -81.32573 | 1742 ft | 178 kts | 4° |
| 2026-05-05 01:31 | 28.34294 | -81.32588 | 1531 ft | 161 kts | 5° |
| 2026-05-05 01:31 | 28.35387 | -81.32599 | 1323 ft | 155 kts | 5° |
| 2026-05-05 01:31 | 28.36447 | -81.32609 | 1126 ft | 150 kts | 5° |